createdAt,value
2022-09-29T00:00:30.261Z,99
2022-09-29T00:01:00.817Z,99
2022-09-29T00:01:31.591Z,99
2022-09-29T00:02:02.635Z,99
2022-09-29T00:02:33.399Z,99
2022-09-29T00:03:04.343Z,99
2022-09-29T00:03:37.596Z,99
2022-09-29T00:04:06.810Z,99
2022-09-29T00:05:16.136Z,99
2022-09-29T00:05:39.619Z,99
2022-09-29T00:06:11.176Z,99
2022-09-29T00:06:41.511Z,99
2022-09-29T00:07:13.384Z,99
2022-09-29T00:07:43.543Z,99
2022-09-29T00:08:14.866Z,99
2022-09-29T00:10:14.187Z,99
2022-09-29T00:10:20.024Z,99
2022-09-29T00:10:50.316Z,99
2022-09-29T00:11:21.457Z,99
2022-09-29T00:11:53.797Z,99
2022-09-29T00:12:23.033Z,99
2022-09-29T00:12:53.493Z,99
2022-09-29T00:13:24.632Z,99
2022-09-29T00:13:56.258Z,99
2022-09-29T00:14:27.609Z,99
2022-09-29T00:14:57.968Z,99
2022-09-29T00:16:02.556Z,99
2022-09-29T00:16:32.608Z,99
2022-09-29T00:17:04.670Z,99
2022-09-29T00:18:17.163Z,99
2022-09-29T00:18:35.652Z,99
2022-09-29T00:19:06.185Z,99
2022-09-29T00:19:37.334Z,99
2022-09-29T00:20:18.016Z,99
2022-09-29T00:20:39.361Z,99
2022-09-29T00:21:09.846Z,99
2022-09-29T00:21:40.697Z,99
2022-09-29T00:22:11.625Z,99
2022-09-29T00:22:43.020Z,99
2022-09-29T00:23:14.065Z,99
2022-09-29T00:23:44.959Z,99
2022-09-29T00:24:16.017Z,99
2022-09-29T00:24:48.805Z,99
2022-09-29T00:25:17.864Z,99
2022-09-29T00:25:49.480Z,99
2022-09-29T00:26:19.841Z,99
2022-09-29T00:26:50.475Z,99
2022-09-29T00:27:22.806Z,99
2022-09-29T00:27:52.449Z,99
2022-09-29T00:28:25.476Z,99
2022-09-29T00:28:55.350Z,99
2022-09-29T00:29:26.142Z,99
2022-09-29T00:29:57.653Z,99
2022-09-29T00:30:27.885Z,99
2022-09-29T00:30:58.885Z,99
2022-09-29T00:31:29.475Z,99
2022-09-29T00:32:01.137Z,99
2022-09-29T00:32:47.223Z,99
2022-09-29T00:33:05.147Z,99
2022-09-29T00:33:36.337Z,99
2022-09-29T00:34:05.421Z,99
2022-09-29T00:34:36.169Z,99
2022-09-29T00:35:07.284Z,99
2022-09-29T00:35:38.131Z,99
2022-09-29T00:36:10.761Z,99
2022-09-29T00:36:40.253Z,99
2022-09-29T00:37:12.175Z,99
2022-09-29T00:37:50.040Z,99
2022-09-29T00:38:13.372Z,99
2022-09-29T00:38:43.638Z,99
2022-09-29T00:39:17.800Z,99
2022-09-29T00:39:46.526Z,99
2022-09-29T00:40:17.139Z,99
2022-09-29T00:40:54.436Z,99
2022-09-29T00:42:27.225Z,99
2022-09-29T00:42:59.288Z,99
2022-09-29T00:43:23.341Z,99
2022-09-29T00:43:54.790Z,99
2022-09-29T00:44:39.544Z,99
2022-09-29T00:44:56.278Z,99
2022-09-29T00:45:29.503Z,99
2022-09-29T00:45:59.551Z,99
2022-09-29T00:46:33.879Z,99
2022-09-29T00:47:00.853Z,99
2022-09-29T00:47:31.887Z,99
2022-09-29T00:48:04.539Z,99
2022-09-29T00:48:33.038Z,99
2022-09-29T00:49:04.023Z,99
2022-09-29T00:50:06.404Z,99
2022-09-29T00:50:37.650Z,99
2022-09-29T00:51:07.661Z,99
2022-09-29T00:51:38.743Z,99
2022-09-29T00:52:09.784Z,99
2022-09-29T00:52:40.694Z,99
2022-09-29T00:53:12.422Z,99
2022-09-29T00:53:42.768Z,99
2022-09-29T00:54:13.982Z,99
2022-09-29T00:54:44.665Z,99
2022-09-29T00:55:15.711Z,99
2022-09-29T00:55:46.862Z,99
2022-09-29T00:56:17.532Z,99
2022-09-29T00:56:48.821Z,99
2022-09-29T00:57:20.079Z,99
2022-09-29T00:57:50.473Z,99
2022-09-29T00:58:22.215Z,99
2022-09-29T00:59:12.450Z,99
2022-09-29T00:59:23.632Z,99
2022-09-29T00:59:54.790Z,99
2022-09-29T01:00:26.390Z,99
2022-09-29T01:00:56.816Z,99
2022-09-29T01:01:27.828Z,99
2022-09-29T01:01:59.052Z,99
2022-09-29T01:02:30.025Z,99
2022-09-29T01:03:20.447Z,99
2022-09-29T01:03:51.105Z,99
2022-09-29T01:04:23.494Z,99
2022-09-29T01:04:52.531Z,99
2022-09-29T01:05:55.055Z,99
2022-09-29T01:06:25.886Z,99
2022-09-29T01:06:56.868Z,99
2022-09-29T01:07:27.985Z,99
2022-09-29T01:07:58.648Z,99
2022-09-29T01:08:30.035Z,99
2022-09-29T01:09:00.813Z,99
2022-09-29T01:09:32.496Z,99
2022-09-29T01:10:02.678Z,99
2022-09-29T01:10:35.203Z,99
2022-09-29T01:11:05.056Z,99
2022-09-29T01:11:35.951Z,99
2022-09-29T01:12:06.830Z,99
2022-09-29T01:12:38.067Z,99
2022-09-29T01:13:08.716Z,99
2022-09-29T01:13:39.911Z,99
2022-09-29T01:14:10.665Z,99
2022-09-29T01:14:41.562Z,99
2022-09-29T01:15:13.450Z,99
2022-09-29T01:15:44.207Z,99
2022-09-29T01:16:14.875Z,99
2022-09-29T01:16:45.924Z,99
2022-09-29T01:17:16.780Z,99
2022-09-29T01:17:47.865Z,99
2022-09-29T01:18:18.899Z,99
2022-09-29T01:18:49.721Z,99
2022-09-29T01:19:20.560Z,99
2022-09-29T01:19:51.960Z,99
2022-09-29T01:20:23.439Z,99
2022-09-29T01:20:53.738Z,99
2022-09-29T01:21:25.345Z,99
2022-09-29T01:22:26.851Z,99
2022-09-29T01:22:57.830Z,99
2022-09-29T01:23:28.793Z,99
2022-09-29T01:24:00.391Z,99
2022-09-29T01:24:30.977Z,99
2022-09-29T01:25:02.097Z,99
2022-09-29T01:25:32.953Z,99
2022-09-29T01:26:04.199Z,99
2022-09-29T01:26:34.724Z,99
2022-09-29T01:27:05.848Z,99
2022-09-29T01:27:37.085Z,99
2022-09-29T01:28:07.810Z,99
2022-09-29T01:28:38.890Z,99
2022-09-29T01:29:09.959Z,99
2022-09-29T01:29:40.779Z,99
2022-09-29T01:30:13.059Z,99
2022-09-29T01:30:42.867Z,99
2022-09-29T01:31:14.203Z,99
2022-09-29T01:31:45.311Z,99
2022-09-29T01:32:51.656Z,99
2022-09-29T01:33:04.525Z,99
2022-09-29T01:33:17.960Z,99
2022-09-29T01:33:48.685Z,99
2022-09-29T01:34:20.727Z,99
2022-09-29T01:34:50.799Z,99
2022-09-29T01:35:21.885Z,99
2022-09-29T01:35:52.817Z,99
2022-09-29T01:36:24.837Z,99
2022-09-29T01:36:57.958Z,99
2022-09-29T01:37:31.783Z,99
2022-09-29T01:37:56.764Z,99
2022-09-29T01:38:27.911Z,99
2022-09-29T01:38:58.951Z,99
2022-09-29T01:39:30.340Z,99
2022-09-29T01:40:01.282Z,99
2022-09-29T01:40:31.893Z,99
2022-09-29T01:41:04.353Z,99
2022-09-29T01:41:33.973Z,99
2022-09-29T01:42:35.958Z,99
2022-09-29T01:43:06.902Z,99
2022-09-29T01:43:37.774Z,99
2022-09-29T01:44:09.166Z,99
2022-09-29T01:44:40.127Z,99
2022-09-29T01:45:21.414Z,99
2022-09-29T01:45:41.782Z,99
2022-09-29T01:46:13.219Z,99
2022-09-29T01:46:44.377Z,99
2022-09-29T01:47:14.789Z,99
2022-09-29T01:47:45.705Z,99
2022-09-29T01:48:16.726Z,99
2022-09-29T01:48:47.700Z,99
2022-09-29T01:49:19.710Z,99
2022-09-29T01:50:20.837Z,99
2022-09-29T01:50:51.720Z,99
2022-09-29T01:51:22.782Z,99
2022-09-29T01:51:54.350Z,99
2022-09-29T01:52:25.273Z,99
2022-09-29T01:52:55.893Z,99
2022-09-29T01:53:26.848Z,99
2022-09-29T01:53:57.815Z,99
2022-09-29T01:54:28.852Z,99
2022-09-29T01:54:59.942Z,99
2022-09-29T01:55:30.902Z,99
2022-09-29T01:56:01.799Z,99
2022-09-29T01:56:32.799Z,99
2022-09-29T01:57:04.435Z,99
2022-09-29T01:57:34.861Z,99
2022-09-29T01:58:05.799Z,99
2022-09-29T01:58:37.107Z,99
2022-09-29T01:59:07.952Z,99
2022-09-29T01:59:38.835Z,99
2022-09-29T02:00:10.770Z,99
2022-09-29T02:00:40.885Z,99
2022-09-29T02:01:12.369Z,99
2022-09-29T02:01:48.866Z,99
2022-09-29T02:02:14.022Z,99
2022-09-29T02:02:44.883Z,99
2022-09-29T02:03:16.264Z,99
2022-09-29T02:03:51.330Z,99
2022-09-29T02:04:17.819Z,99
2022-09-29T02:04:49.166Z,99
2022-09-29T02:05:20.258Z,99
2022-09-29T02:05:50.925Z,99
2022-09-29T02:06:22.081Z,99
2022-09-29T02:07:11.042Z,99
2022-09-29T02:07:24.620Z,99
2022-09-29T02:07:55.000Z,99
2022-09-29T02:08:26.137Z,99
2022-09-29T02:08:57.104Z,99
2022-09-29T02:09:28.315Z,99
2022-09-29T02:09:59.149Z,99
2022-09-29T02:10:30.471Z,99
2022-09-29T02:11:01.398Z,99
2022-09-29T02:11:32.161Z,99
2022-09-29T02:12:03.332Z,99
2022-09-29T02:12:51.903Z,99
2022-09-29T02:13:05.484Z,99
2022-09-29T02:13:35.942Z,99
2022-09-29T02:14:09.315Z,99
2022-09-29T02:14:38.242Z,99
2022-09-29T02:15:09.776Z,99
2022-09-29T02:15:39.868Z,99
2022-09-29T02:16:11.122Z,99
2022-09-29T02:16:41.859Z,99
2022-09-29T02:17:12.838Z,99
2022-09-29T02:18:14.940Z,99
2022-09-29T02:18:46.014Z,99
2022-09-29T02:19:16.882Z,99
2022-09-29T02:19:47.927Z,99
2022-09-29T02:20:19.253Z,99
2022-09-29T02:20:50.010Z,99
2022-09-29T02:21:38.095Z,99
2022-09-29T02:21:51.996Z,99
2022-09-29T02:22:23.254Z,99
2022-09-29T02:22:54.476Z,99
2022-09-29T02:23:25.163Z,99
2022-09-29T02:23:56.099Z,99
2022-09-29T02:24:27.190Z,99
2022-09-29T02:24:58.060Z,99
2022-09-29T02:25:29.096Z,99
2022-09-29T02:26:00.209Z,99
2022-09-29T02:26:31.119Z,99
2022-09-29T02:27:01.851Z,99
2022-09-29T02:28:04.325Z,99
2022-09-29T02:28:35.285Z,99
2022-09-29T02:29:06.297Z,99
2022-09-29T02:29:37.077Z,99
2022-09-29T02:30:08.927Z,99
2022-09-29T02:30:39.736Z,99
2022-09-29T02:31:15.254Z,99
2022-09-29T02:31:41.215Z,99
2022-09-29T02:32:11.921Z,99
2022-09-29T02:32:43.138Z,99
2022-09-29T02:33:14.341Z,99
2022-09-29T02:33:45.015Z,99
2022-09-29T02:34:16.168Z,99
2022-09-29T02:34:47.141Z,99
2022-09-29T02:35:18.202Z,99
2022-09-29T02:35:49.224Z,99
2022-09-29T02:36:20.295Z,99
2022-09-29T02:36:51.192Z,99
2022-09-29T02:37:22.417Z,99
2022-09-29T02:37:53.312Z,99
2022-09-29T02:38:24.853Z,99
2022-09-29T02:38:55.307Z,99
2022-09-29T02:39:26.391Z,99
2022-09-29T02:39:56.944Z,99
2022-09-29T02:40:28.290Z,99
2022-09-29T02:40:59.294Z,99
2022-09-29T02:41:30.577Z,99
2022-09-29T02:42:01.278Z,99
2022-09-29T02:42:32.027Z,99
2022-09-29T02:43:03.289Z,99
2022-09-29T02:43:34.565Z,99
2022-09-29T02:44:06.424Z,99
2022-09-29T02:44:36.073Z,99
2022-09-29T02:45:38.523Z,99
2022-09-29T02:46:09.410Z,99
2022-09-29T02:46:40.211Z,99
2022-09-29T02:47:11.482Z,99
2022-09-29T02:47:42.502Z,99
2022-09-29T02:48:13.271Z,99
2022-09-29T02:48:44.355Z,99
2022-09-29T02:49:15.544Z,99
2022-09-29T02:49:46.261Z,99
2022-09-29T02:50:17.441Z,99
2022-09-29T02:50:47.996Z,99
2022-09-29T02:51:19.492Z,99
2022-09-29T02:51:50.450Z,99
2022-09-29T02:52:22.173Z,99
2022-09-29T02:52:52.453Z,99
2022-09-29T02:53:23.062Z,99
2022-09-29T02:53:54.337Z,99
2022-09-29T02:54:25.164Z,99
2022-09-29T02:54:55.923Z,99
2022-09-29T02:55:58.350Z,99
2022-09-29T02:56:29.320Z,99
2022-09-29T02:57:00.547Z,99
2022-09-29T02:57:31.480Z,99
2022-09-29T02:58:02.439Z,99
2022-09-29T02:58:33.194Z,99
2022-09-29T02:59:04.851Z,99
2022-09-29T02:59:35.495Z,99
2022-09-29T03:00:09.870Z,99
2022-09-29T03:00:37.572Z,99
2022-09-29T03:01:08.386Z,99
2022-09-29T03:01:39.178Z,99
2022-09-29T03:02:13.021Z,99
2022-09-29T03:02:41.186Z,99
2022-09-29T03:03:12.011Z,99
2022-09-29T03:03:43.367Z,99
2022-09-29T03:04:21.006Z,99
2022-09-29T03:04:45.238Z,99
2022-09-29T03:05:16.295Z,99
2022-09-29T03:05:47.235Z,99
2022-09-29T03:06:18.355Z,99
2022-09-29T03:06:49.276Z,99
2022-09-29T03:07:20.378Z,99
2022-09-29T03:07:51.614Z,99
2022-09-29T03:08:22.359Z,99
2022-09-29T03:08:53.390Z,99
2022-09-29T03:09:24.936Z,99
2022-09-29T03:09:55.466Z,99
2022-09-29T03:10:30.032Z,99
2022-09-29T03:10:57.231Z,99
2022-09-29T03:11:28.428Z,99
2022-09-29T03:11:59.474Z,99
2022-09-29T03:12:30.439Z,99
2022-09-29T03:13:01.299Z,99
2022-09-29T03:13:32.666Z,99
2022-09-29T03:14:03.809Z,99
2022-09-29T03:14:35.332Z,99
2022-09-29T03:15:09.235Z,99
2022-09-29T03:15:40.288Z,99
2022-09-29T03:16:07.936Z,99
2022-09-29T03:16:49.241Z,99
2022-09-29T03:17:09.409Z,99
2022-09-29T03:17:40.094Z,99
2022-09-29T03:18:11.299Z,99
2022-09-29T03:18:42.409Z,99
2022-09-29T03:19:13.059Z,99
2022-09-29T03:19:44.812Z,99
2022-09-29T03:20:15.593Z,99
2022-09-29T03:20:46.174Z,99
2022-09-29T03:21:17.867Z,99
2022-09-29T03:21:48.469Z,99
2022-09-29T03:22:19.682Z,99
2022-09-29T03:22:50.603Z,99
2022-09-29T03:23:21.222Z,99
2022-09-29T03:23:56.858Z,99
2022-09-29T03:24:23.453Z,99
2022-09-29T03:24:55.082Z,99
2022-09-29T03:25:25.464Z,99
2022-09-29T03:25:56.317Z,99
2022-09-29T03:26:27.322Z,99
2022-09-29T03:26:58.151Z,99
2022-09-29T03:27:29.777Z,99
2022-09-29T03:28:00.722Z,99
2022-09-29T03:28:31.217Z,99
2022-09-29T03:29:02.159Z,99
2022-09-29T03:29:33.343Z,99
2022-09-29T03:30:05.114Z,99
2022-09-29T03:30:35.431Z,99
2022-09-29T03:31:06.580Z,99
2022-09-29T03:31:40.217Z,99
2022-09-29T03:32:08.528Z,99
2022-09-29T03:32:39.433Z,99
2022-09-29T03:33:11.030Z,99
2022-09-29T03:33:41.337Z,99
2022-09-29T03:34:12.331Z,99
2022-09-29T03:34:43.215Z,99
2022-09-29T03:35:15.002Z,99
2022-09-29T03:35:45.457Z,99
2022-09-29T03:36:33.511Z,99
2022-09-29T03:36:47.495Z,99
2022-09-29T03:37:18.652Z,99
2022-09-29T03:37:49.790Z,99
2022-09-29T03:38:20.990Z,99
2022-09-29T03:38:51.294Z,99
2022-09-29T03:39:22.637Z,99
2022-09-29T03:39:53.672Z,99
2022-09-29T03:40:25.632Z,99
2022-09-29T03:40:55.823Z,99
2022-09-29T03:41:26.605Z,99
2022-09-29T03:41:57.512Z,99
2022-09-29T03:42:28.352Z,99
2022-09-29T03:42:59.493Z,99
2022-09-29T03:43:30.792Z,99
2022-09-29T03:44:01.457Z,99
2022-09-29T03:44:32.379Z,99
2022-09-29T03:45:04.128Z,99
2022-09-29T03:45:34.922Z,99
2022-09-29T03:46:05.490Z,99
2022-09-29T03:46:36.605Z,99
2022-09-29T03:47:08.214Z,99
2022-09-29T03:47:38.582Z,99
2022-09-29T03:48:10.820Z,99
2022-09-29T03:48:42.191Z,99
2022-09-29T03:49:12.847Z,99
2022-09-29T03:49:43.283Z,99
2022-09-29T03:50:44.739Z,99
2022-09-29T03:51:15.509Z,99
2022-09-29T03:51:46.292Z,99
2022-09-29T03:52:17.458Z,99
2022-09-29T03:52:48.500Z,99
2022-09-29T03:53:19.524Z,99
2022-09-29T03:53:51.887Z,99
2022-09-29T03:54:25.691Z,99
2022-09-29T03:54:53.295Z,99
2022-09-29T03:55:25.096Z,99
2022-09-29T03:55:54.887Z,99
2022-09-29T03:56:25.435Z,99
2022-09-29T03:56:56.493Z,99
2022-09-29T03:57:27.197Z,99
2022-09-29T03:57:58.342Z,99
2022-09-29T03:58:29.403Z,99
2022-09-29T03:59:01.991Z,99
2022-09-29T03:59:33.099Z,99
2022-09-29T04:00:08.540Z,99
2022-09-29T04:00:42.093Z,99
2022-09-29T04:01:04.903Z,99
2022-09-29T04:01:35.549Z,99
2022-09-29T04:02:07.896Z,99
2022-09-29T04:02:38.167Z,99
2022-09-29T04:03:08.578Z,99
2022-09-29T04:03:39.476Z,99
2022-09-29T04:04:10.495Z,99
2022-09-29T04:04:41.529Z,99
2022-09-29T04:05:12.624Z,99
2022-09-29T04:05:43.593Z,99
2022-09-29T04:06:14.638Z,99
2022-09-29T04:06:46.272Z,99
2022-09-29T04:07:17.669Z,99
2022-09-29T04:07:49.386Z,99
2022-09-29T04:08:18.794Z,99
2022-09-29T04:08:49.375Z,99
2022-09-29T04:09:20.692Z,99
2022-09-29T04:09:51.364Z,99
2022-09-29T04:10:22.786Z,99
2022-09-29T04:10:53.734Z,99
2022-09-29T04:11:25.141Z,99
2022-09-29T04:11:55.958Z,99
2022-09-29T04:12:26.712Z,99
2022-09-29T04:12:59.239Z,99
2022-09-29T04:13:28.907Z,99
2022-09-29T04:13:59.713Z,99
2022-09-29T04:14:30.872Z,99
2022-09-29T04:15:02.666Z,99
2022-09-29T04:15:32.600Z,99
2022-09-29T04:16:03.909Z,99
2022-09-29T04:16:34.937Z,99
2022-09-29T04:17:07.176Z,99
2022-09-29T04:17:37.957Z,99
2022-09-29T04:18:08.896Z,99
2022-09-29T04:18:42.207Z,99
2022-09-29T04:19:09.615Z,99
2022-09-29T04:19:41.352Z,99
2022-09-29T04:20:12.680Z,99
2022-09-29T04:20:43.043Z,99
2022-09-29T04:21:13.535Z,99
2022-09-29T04:21:45.020Z,99
2022-09-29T04:22:15.381Z,99
2022-09-29T04:22:47.225Z,99
2022-09-29T04:23:49.381Z,99
2022-09-29T04:24:20.664Z,99
2022-09-29T04:25:21.432Z,99
2022-09-29T04:25:52.769Z,99
2022-09-29T04:26:23.905Z,99
2022-09-29T04:26:54.992Z,99
2022-09-29T04:27:26.541Z,99
2022-09-29T04:27:57.958Z,99
2022-09-29T04:28:28.703Z,99
2022-09-29T04:28:59.205Z,99
2022-09-29T04:29:51.292Z,99
2022-09-29T04:30:02.381Z,99
2022-09-29T04:30:35.529Z,99
2022-09-29T04:31:02.798Z,99
2022-09-29T04:31:41.091Z,99
2022-09-29T04:32:05.203Z,99
2022-09-29T04:32:35.746Z,99
2022-09-29T04:33:08.371Z,99
2022-09-29T04:33:38.948Z,99
2022-09-29T04:34:08.997Z,99
2022-09-29T04:34:40.182Z,99
2022-09-29T04:35:12.234Z,99
2022-09-29T04:35:42.319Z,99
2022-09-29T04:36:12.735Z,99
2022-09-29T04:36:43.478Z,99
2022-09-29T04:37:15.100Z,99
2022-09-29T04:37:47.144Z,99
2022-09-29T04:38:18.083Z,99
2022-09-29T04:38:48.448Z,99
2022-09-29T04:39:20.187Z,99
2022-09-29T04:39:49.727Z,99
2022-09-29T04:40:21.035Z,99
2022-09-29T04:41:23.046Z,99
2022-09-29T04:41:53.761Z,99
2022-09-29T04:42:25.006Z,99
2022-09-29T04:42:58.816Z,99
2022-09-29T04:43:28.017Z,99
2022-09-29T04:43:58.280Z,99
2022-09-29T04:44:28.985Z,99
2022-09-29T04:44:59.552Z,99
2022-09-29T04:45:31.284Z,99
2022-09-29T04:46:03.069Z,99
2022-09-29T04:46:32.957Z,99
2022-09-29T04:47:03.602Z,99
2022-09-29T04:47:34.970Z,99
2022-09-29T04:48:05.902Z,99
2022-09-29T04:48:36.975Z,99
2022-09-29T04:49:08.703Z,99
2022-09-29T04:49:39.026Z,99
2022-09-29T04:50:10.592Z,99
2022-09-29T04:50:44.648Z,99
2022-09-29T04:51:12.626Z,99
2022-09-29T04:51:42.697Z,99
2022-09-29T04:52:17.893Z,99
2022-09-29T04:52:49.249Z,99
2022-09-29T04:53:15.523Z,99
2022-09-29T04:53:46.733Z,99
2022-09-29T04:54:19.278Z,99
2022-09-29T04:54:49.306Z,99
2022-09-29T04:55:20.111Z,99
2022-09-29T04:55:50.862Z,99
2022-09-29T04:56:21.837Z,99
2022-09-29T04:56:52.753Z,99
2022-09-29T04:57:25.399Z,99
2022-09-29T04:57:55.120Z,99
2022-09-29T04:58:25.706Z,99
2022-09-29T04:58:57.981Z,99
2022-09-29T04:59:28.444Z,99
2022-09-29T04:59:58.815Z,99
2022-09-29T05:00:34.314Z,99
2022-09-29T05:01:00.902Z,99
2022-09-29T05:01:32.078Z,99
2022-09-29T05:02:08.701Z,99
2022-09-29T05:02:33.573Z,99
2022-09-29T05:03:05.037Z,99
2022-09-29T05:03:36.635Z,99
2022-09-29T05:04:08.242Z,99
2022-09-29T05:06:03.409Z,99
2022-09-29T05:06:15.355Z,99
2022-09-29T05:06:42.143Z,99
2022-09-29T05:07:12.603Z,99
2022-09-29T05:07:43.536Z,99
2022-09-29T05:08:16.015Z,99
2022-09-29T05:08:55.615Z,99
2022-09-29T05:09:21.636Z,99
2022-09-29T05:09:53.343Z,99
2022-09-29T05:10:19.219Z,99
2022-09-29T05:10:50.810Z,99
2022-09-29T05:11:20.850Z,99
2022-09-29T05:11:51.595Z,99
2022-09-29T05:12:22.861Z,99
2022-09-29T05:12:53.842Z,99
2022-09-29T05:13:25.066Z,99
2022-09-29T05:13:57.147Z,99
2022-09-29T05:14:27.964Z,99
2022-09-29T05:14:58.830Z,99
2022-09-29T05:16:11.274Z,99
2022-09-29T05:16:30.941Z,99
2022-09-29T05:17:55.834Z,99
2022-09-29T05:18:04.088Z,99
2022-09-29T05:18:34.906Z,99
2022-09-29T05:19:06.871Z,99
2022-09-29T05:19:37.925Z,99
2022-09-29T05:24:07.033Z,99
2022-09-29T05:24:48.792Z,99
2022-09-29T05:25:18.767Z,99
2022-09-29T05:25:49.390Z,99
2022-09-29T05:26:22.233Z,99
2022-09-29T05:27:09.068Z,99
2022-09-29T05:27:21.736Z,99
2022-09-29T05:27:52.959Z,99
2022-09-29T05:28:24.082Z,99
2022-09-29T05:28:54.860Z,99
2022-09-29T05:29:26.135Z,99
2022-09-29T05:38:03.624Z,99
2022-09-29T05:38:13.504Z,99
2022-09-29T05:38:49.125Z,99
2022-09-29T05:39:15.335Z,99
2022-09-29T05:39:46.235Z,99
2022-09-29T05:40:19.160Z,99
2022-09-29T05:40:48.931Z,99
2022-09-29T05:41:19.344Z,99
2022-09-29T05:41:50.016Z,99
2022-09-29T05:42:21.267Z,99
2022-09-29T05:42:52.110Z,99
2022-09-29T05:43:23.259Z,99
2022-09-29T05:43:54.118Z,99
2022-09-29T05:44:25.280Z,99
2022-09-29T05:44:56.056Z,99
2022-09-29T05:45:29.123Z,99
2022-09-29T05:45:59.079Z,99
2022-09-29T05:46:29.461Z,99
2022-09-29T05:47:00.843Z,99
2022-09-29T05:47:31.016Z,99
2022-09-29T05:48:02.378Z,99
2022-09-29T05:48:33.432Z,99
2022-09-29T05:49:04.346Z,99
2022-09-29T05:49:34.919Z,99
2022-09-29T05:50:06.935Z,99
2022-09-29T05:50:40.714Z,99
2022-09-29T05:51:09.305Z,99
2022-09-29T05:51:40.856Z,99
2022-09-29T05:52:13.399Z,99
2022-09-29T05:52:41.144Z,99
2022-09-29T05:53:19.846Z,99
2022-09-29T05:53:43.314Z,99
2022-09-29T05:54:14.774Z,99
2022-09-29T05:54:45.220Z,99
2022-09-29T05:55:17.210Z,99
2022-09-29T05:55:48.901Z,99
2022-09-29T05:56:18.986Z,99
2022-09-29T05:56:49.559Z,99
2022-09-29T05:57:20.157Z,99
2022-09-29T05:57:51.255Z,99
2022-09-29T05:58:22.046Z,99
2022-09-29T05:58:53.463Z,99
2022-09-29T05:59:30.067Z,99
2022-09-29T05:59:55.182Z,99
2022-09-29T06:00:28.480Z,99
2022-09-29T06:00:57.791Z,99
2022-09-29T06:01:29.219Z,99
2022-09-29T06:01:59.544Z,99
2022-09-29T06:02:30.821Z,99
2022-09-29T06:03:01.264Z,99
2022-09-29T06:03:31.886Z,99
2022-09-29T06:04:20.506Z,99
2022-09-29T06:04:38.585Z,99
2022-09-29T06:05:05.643Z,99
2022-09-29T06:05:36.273Z,99
2022-09-29T06:06:08.516Z,99
2022-09-29T06:06:39.383Z,99
2022-09-29T06:07:09.851Z,99
2022-09-29T06:08:12.498Z,99
2022-09-29T06:08:42.514Z,99
2022-09-29T06:09:13.514Z,99
2022-09-29T06:09:44.039Z,99
2022-09-29T06:10:15.828Z,99
2022-09-29T06:10:46.521Z,99
2022-09-29T06:11:17.979Z,99
2022-09-29T06:11:49.028Z,99
2022-09-29T06:12:21.759Z,99
2022-09-29T06:12:50.019Z,99
2022-09-29T06:13:21.111Z,99
2022-09-29T06:13:52.118Z,99
2022-09-29T06:14:23.123Z,99
2022-09-29T06:14:54.147Z,99
2022-09-29T06:15:25.420Z,99
2022-09-29T06:15:56.379Z,99
2022-09-29T06:16:28.765Z,99
2022-09-29T06:16:59.371Z,99
2022-09-29T06:17:30.296Z,99
2022-09-29T06:18:00.522Z,99
2022-09-29T06:18:31.507Z,99
2022-09-29T06:19:33.317Z,99
2022-09-29T06:20:06.726Z,99
2022-09-29T06:20:40.124Z,99
2022-09-29T06:21:06.649Z,99
2022-09-29T06:21:38.054Z,99
2022-09-29T06:22:09.770Z,99
2022-09-29T06:22:40.125Z,99
2022-09-29T06:23:10.580Z,99
2022-09-29T06:23:41.392Z,99
2022-09-29T06:24:12.502Z,99
2022-09-29T06:24:52.838Z,99
2022-09-29T06:25:14.659Z,99
2022-09-29T06:25:45.614Z,99
2022-09-29T06:26:20.165Z,99
2022-09-29T06:26:47.967Z,99
2022-09-29T06:27:19.796Z,99
2022-09-29T06:27:50.242Z,99
2022-09-29T06:28:20.417Z,99
2022-09-29T06:28:51.522Z,99
2022-09-29T06:29:22.107Z,99
2022-09-29T06:29:53.477Z,99
2022-09-29T06:30:26.900Z,99
2022-09-29T06:30:55.206Z,99
2022-09-29T06:31:26.466Z,99
2022-09-29T06:31:57.669Z,99
2022-09-29T06:32:29.659Z,99
2022-09-29T06:33:00.367Z,99
2022-09-29T06:33:30.568Z,99
2022-09-29T06:34:01.445Z,99
2022-09-29T06:34:32.002Z,99
2022-09-29T06:35:03.905Z,99
2022-09-29T06:35:34.266Z,99
2022-09-29T06:36:05.588Z,99
2022-09-29T06:36:36.625Z,99
2022-09-29T06:37:08.689Z,99
2022-09-29T06:37:39.890Z,99
2022-09-29T06:38:26.836Z,99
2022-09-29T06:38:40.655Z,99
2022-09-29T06:39:12.073Z,99
2022-09-29T06:39:44.263Z,99
2022-09-29T06:40:14.248Z,99
2022-09-29T06:40:44.435Z,99
2022-09-29T06:41:46.164Z,99
2022-09-29T06:42:17.340Z,99
2022-09-29T06:42:50.080Z,99
2022-09-29T06:43:20.058Z,99
2022-09-29T06:43:50.235Z,99
2022-09-29T06:44:21.405Z,99
2022-09-29T06:44:52.291Z,99
2022-09-29T06:45:23.899Z,99
2022-09-29T06:45:54.435Z,99
2022-09-29T06:46:25.372Z,99
2022-09-29T06:47:13.763Z,99
2022-09-29T06:47:27.340Z,99
2022-09-29T06:48:00.142Z,99
2022-09-29T06:48:30.301Z,98
2022-09-29T06:49:00.348Z,98
2022-09-29T06:49:31.641Z,98
2022-09-29T06:50:11.916Z,97
2022-09-29T06:50:33.502Z,97
2022-09-29T06:51:09.976Z,96
2022-09-29T06:51:45.210Z,96
2022-09-29T06:52:15.822Z,95
2022-09-29T06:52:37.413Z,95
2022-09-29T06:53:10.284Z,93
2022-09-29T06:53:40.152Z,93
2022-09-29T06:54:12.099Z,93
2022-09-29T06:54:41.172Z,92
2022-09-29T07:00:27.248Z,93
2022-09-29T07:06:55.076Z,83
2022-09-29T07:07:05.392Z,85
2022-09-29T07:07:36.810Z,86
2022-09-29T07:08:38.177Z,87
2022-09-29T07:09:10.773Z,84
2022-09-29T07:09:41.654Z,80
2022-09-29T07:10:11.801Z,80
2022-09-29T07:10:43.614Z,80
2022-09-29T07:11:13.138Z,80
2022-09-29T07:11:44.285Z,83
2022-09-29T07:12:15.095Z,83
2022-09-29T07:12:46.337Z,83
2022-09-29T07:13:17.510Z,83
2022-09-29T07:13:52.265Z,83
2022-09-29T07:14:20.911Z,82
2022-09-29T07:14:51.575Z,83
2022-09-29T07:15:22.916Z,83
2022-09-29T07:16:15.798Z,83
2022-09-29T07:16:23.268Z,83
2022-09-29T07:17:06.961Z,83
2022-09-29T07:17:25.444Z,82
2022-09-29T07:17:57.141Z,81
2022-09-29T07:18:27.552Z,79
2022-09-29T07:18:58.457Z,78
2022-09-29T07:19:31.022Z,79
2022-09-29T07:20:01.906Z,80
2022-09-29T07:20:31.930Z,81
2022-09-29T07:21:02.920Z,80
2022-09-29T07:21:36.595Z,80
2022-09-29T07:22:07.292Z,78
2022-09-29T07:22:35.641Z,78
2022-09-29T07:23:06.509Z,80
2022-09-29T07:23:37.292Z,79
2022-09-29T07:24:08.283Z,79
2022-09-29T07:24:41.892Z,79
2022-09-29T07:25:23.001Z,77
2022-09-29T07:25:51.560Z,79
2022-09-29T07:26:12.810Z,77
2022-09-29T07:26:43.449Z,77
2022-09-29T07:27:14.355Z,76
2022-09-29T07:27:46.327Z,77
2022-09-29T07:33:01.168Z,75
2022-09-29T07:33:47.589Z,72
2022-09-29T07:33:58.055Z,71
2022-09-29T07:34:30.623Z,70
2022-09-29T07:35:01.395Z,73
2022-09-29T07:35:30.640Z,73
2022-09-29T07:36:04.403Z,71
2022-09-29T07:36:32.346Z,69
2022-09-29T07:37:03.454Z,68
2022-09-29T07:37:34.362Z,70
2022-09-29T07:38:05.586Z,69
2022-09-29T07:38:36.691Z,69
2022-09-29T07:39:07.570Z,67
2022-09-29T07:39:40.037Z,66
2022-09-29T07:40:10.630Z,68
2022-09-29T07:40:40.756Z,68
2022-09-29T07:41:42.669Z,69
2022-09-29T07:42:13.576Z,68
2022-09-29T07:42:44.540Z,67
2022-09-29T07:43:15.416Z,69
2022-09-29T07:43:46.842Z,67
2022-09-29T07:44:34.571Z,69
2022-09-29T07:44:52.448Z,68
2022-09-29T07:45:21.581Z,69
2022-09-29T07:45:50.980Z,67
2022-09-29T07:46:21.756Z,66
2022-09-29T07:46:52.463Z,67
2022-09-29T07:47:23.325Z,67
2022-09-29T07:47:54.567Z,69
2022-09-29T07:48:56.939Z,70
2022-09-29T07:49:27.551Z,69
2022-09-29T07:49:59.817Z,68
2022-09-29T07:50:33.018Z,69
2022-09-29T07:51:01.070Z,69
2022-09-29T07:51:31.930Z,67
2022-09-29T07:52:05.406Z,69
2022-09-29T07:52:33.581Z,67
2022-09-29T07:53:04.575Z,68
2022-09-29T07:53:35.724Z,69
2022-09-29T07:54:06.586Z,68
2022-09-29T07:54:37.321Z,71
2022-09-29T07:55:10.106Z,71
2022-09-29T07:55:40.640Z,72
2022-09-29T07:56:13.354Z,70
2022-09-29T07:56:42.067Z,70
2022-09-29T07:57:12.649Z,70
2022-09-29T07:57:43.712Z,70
2022-09-29T07:58:45.703Z,69
2022-09-29T07:59:17.236Z,70
2022-09-29T07:59:53.037Z,69
2022-09-29T08:00:37.538Z,68
2022-09-29T08:00:50.957Z,68
2022-09-29T08:01:20.890Z,66
2022-09-29T08:01:52.547Z,69
2022-09-29T08:02:23.127Z,69
2022-09-29T08:02:53.707Z,69
2022-09-29T08:03:24.893Z,70
2022-09-29T08:04:01.798Z,70
2022-09-29T08:04:26.798Z,70
2022-09-29T08:05:01.363Z,69
2022-09-29T08:05:28.869Z,68
2022-09-29T08:06:22.580Z,71